sensor_id;sensor_type;location;lat;lon;timestamp;pressure;altitude;pressure_sealevel;temperature;humidity
62544;BME280;48597;49.030;1.822;2022-10-23T00:01:27;100334.97;;;20.57;56.20
62544;BME280;48597;49.030;1.822;2022-10-23T00:04:01;100327.97;;;20.56;55.97
62544;BME280;48597;49.030;1.822;2022-10-23T00:06:28;100325.28;;;20.56;56.29
62544;BME280;48597;49.030;1.822;2022-10-23T00:08:53;100322.63;;;20.56;56.36
62544;BME280;48597;49.030;1.822;2022-10-23T00:11:22;100311.94;;;20.56;56.17
62544;BME280;48597;49.030;1.822;2022-10-23T00:13:49;100310.22;;;20.55;56.18
62544;BME280;48597;49.030;1.822;2022-10-23T00:16:14;100304.88;;;20.55;56.12
62544;BME280;48597;49.030;1.822;2022-10-23T00:18:40;100291.53;;;20.55;56.09
62544;BME280;48597;49.030;1.822;2022-10-23T00:21:08;100293.38;;;20.54;56.15
62544;BME280;48597;49.030;1.822;2022-10-23T00:23:35;100295.22;;;20.54;56.09
62544;BME280;48597;49.030;1.822;2022-10-23T00:26:01;100285.34;;;20.54;56.12
62544;BME280;48597;49.030;1.822;2022-10-23T00:28:27;100278.34;;;20.53;56.20
62544;BME280;48597;49.030;1.822;2022-10-23T00:30:52;100281.84;;;20.54;56.01
62544;BME280;48597;49.030;1.822;2022-10-23T00:33:18;100281.00;;;20.53;56.13
62544;BME280;48597;49.030;1.822;2022-10-23T00:35:43;100286.34;;;20.53;56.09
62544;BME280;48597;49.030;1.822;2022-10-23T00:38:09;100267.66;;;20.53;56.05
62544;BME280;48597;49.030;1.822;2022-10-23T00:40:35;100265.97;;;20.52;56.05
62544;BME280;48597;49.030;1.822;2022-10-23T00:43:01;100265.16;;;20.52;55.82
62544;BME280;48597;49.030;1.822;2022-10-23T00:45:29;100252.63;;;20.52;55.91
62544;BME280;48597;49.030;1.822;2022-10-23T00:47:59;100252.63;;;20.52;55.94
62544;BME280;48597;49.030;1.822;2022-10-23T00:50:27;100251.78;;;20.52;56.27
62544;BME280;48597;49.030;1.822;2022-10-23T00:52:55;100244.75;;;20.51;55.99
62544;BME280;48597;49.030;1.822;2022-10-23T00:55:22;100239.41;;;20.51;56.03
62544;BME280;48597;49.030;1.822;2022-10-23T00:57:49;100234.88;;;20.51;55.82
62544;BME280;48597;49.030;1.822;2022-10-23T01:00:19;100235.75;;;20.52;56.05
62544;BME280;48597;49.030;1.822;2022-10-23T01:02:45;100234.88;;;20.51;55.97
62544;BME280;48597;49.030;1.822;2022-10-23T01:05:11;100240.22;;;20.51;55.98
62544;BME280;48597;49.030;1.822;2022-10-23T01:07:44;100234.06;;;20.51;56.05
62544;BME280;48597;49.030;1.822;2022-10-23T01:10:18;100233.22;;;20.50;55.91
62544;BME280;48597;49.030;1.822;2022-10-23T01:12:58;100219.03;;;20.50;56.05
62544;BME280;48597;49.030;1.822;2022-10-23T01:16:02;100217.19;;;20.50;56.06
62544;BME280;48597;49.030;1.822;2022-10-23T01:18:48;100219.03;;;20.50;56.03
62544;BME280;48597;49.030;1.822;2022-10-23T01:21:22;100220.03;;;20.49;56.01
62544;BME280;48597;49.030;1.822;2022-10-23T01:31:49;100205.97;;;20.47;56.15
62544;BME280;48597;49.030;1.822;2022-10-23T01:34:32;100207.66;;;20.48;55.93
62544;BME280;48597;49.030;1.822;2022-10-23T01:37:02;100197.81;;;20.48;56.12
62544;BME280;48597;49.030;1.822;2022-10-23T01:39:34;100194.28;;;20.48;55.98
62544;BME280;48597;49.030;1.822;2022-10-23T01:42:23;100196.97;;;20.48;55.87
62544;BME280;48597;49.030;1.822;2022-10-23T01:45:02;100182.75;;;20.47;55.96
62544;BME280;48597;49.030;1.822;2022-10-23T01:47:32;100179.25;;;20.47;55.72
62544;BME280;48597;49.030;1.822;2022-10-23T01:50:00;100180.06;;;20.47;56.04
62544;BME280;48597;49.030;1.822;2022-10-23T01:52:26;100166.72;;;20.47;55.88
62544;BME280;48597;49.030;1.822;2022-10-23T01:54:54;100156.19;;;20.46;55.82
62544;BME280;48597;49.030;1.822;2022-10-23T01:57:24;100166.72;;;20.47;55.86
62544;BME280;48597;49.030;1.822;2022-10-23T01:59:52;100172.06;;;20.47;55.89
62544;BME280;48597;49.030;1.822;2022-10-23T02:02:21;100162.38;;;20.46;56.03
62544;BME280;48597;49.030;1.822;2022-10-23T02:04:57;100163.19;;;20.47;55.94
62544;BME280;48597;49.030;1.822;2022-10-23T02:07:24;100155.19;;;20.47;55.93
62544;BME280;48597;49.030;1.822;2022-10-23T02:09:49;100152.50;;;20.47;55.91
62544;BME280;48597;49.030;1.822;2022-10-23T02:12:28;100153.53;;;20.46;55.83
62544;BME280;48597;49.030;1.822;2022-10-23T02:15:11;100141.00;;;20.46;55.93
62544;BME280;48597;49.030;1.822;2022-10-23T02:20:27;100125.97;;;20.45;55.84
62544;BME280;48597;49.030;1.822;2022-10-23T02:22:59;100125.97;;;20.45;55.84
62544;BME280;48597;49.030;1.822;2022-10-23T02:25:45;100106.44;;;20.45;55.81
62544;BME280;48597;49.030;1.822;2022-10-23T02:28:15;100110.75;;;20.46;55.71
62544;BME280;48597;49.030;1.822;2022-10-23T02:30:44;100110.75;;;20.46;55.79
62544;BME280;48597;49.030;1.822;2022-10-23T02:33:12;100108.09;;;20.46;55.92
62544;BME280;48597;49.030;1.822;2022-10-23T02:35:38;100107.25;;;20.45;55.57
62544;BME280;48597;49.030;1.822;2022-10-23T02:38:31;100101.09;;;20.45;55.67
62544;BME280;48597;49.030;1.822;2022-10-23T02:41:24;100104.78;;;20.44;55.83
62544;BME280;48597;49.030;1.822;2022-10-23T02:46:22;100079.72;;;20.45;55.76
62544;BME280;48597;49.030;1.822;2022-10-23T02:49:24;100074.38;;;20.45;55.67
62544;BME280;48597;49.030;1.822;2022-10-23T02:55:06;100060.19;;;20.44;55.60
62544;BME280;48597;49.030;1.822;2022-10-23T02:58:10;100072.72;;;20.44;55.73
62544;BME280;48597;49.030;1.822;2022-10-23T03:00:36;100067.50;;;20.42;55.61
62544;BME280;48597;49.030;1.822;2022-10-23T03:03:11;100070.03;;;20.44;55.69
62544;BME280;48597;49.030;1.822;2022-10-23T03:05:39;100079.88;;;20.43;55.89
62544;BME280;48597;49.030;1.822;2022-10-23T03:08:09;100071.00;;;20.43;55.74
62544;BME280;48597;49.030;1.822;2022-10-23T03:10:35;100063.81;;;20.43;55.47
62544;BME280;48597;49.030;1.822;2022-10-23T03:13:02;100056.81;;;20.42;55.61
62544;BME280;48597;49.030;1.822;2022-10-23T03:15:27;100063.00;;;20.43;55.59
62544;BME280;48597;49.030;1.822;2022-10-23T03:17:53;100060.31;;;20.43;55.71
62544;BME280;48597;49.030;1.822;2022-10-23T03:20:19;100054.16;;;20.42;55.84
62544;BME280;48597;49.030;1.822;2022-10-23T03:22:45;100054.16;;;20.42;55.63
62544;BME280;48597;49.030;1.822;2022-10-23T03:25:10;100044.28;;;20.43;55.61
62544;BME280;48597;49.030;1.822;2022-10-23T03:27:36;100036.28;;;20.43;55.78
62544;BME280;48597;49.030;1.822;2022-10-23T03:30:02;100049.63;;;20.43;55.58
62544;BME280;48597;49.030;1.822;2022-10-23T03:32:28;100055.81;;;20.43;55.61
62544;BME280;48597;49.030;1.822;2022-10-23T03:34:53;100060.31;;;20.43;55.66
62544;BME280;48597;49.030;1.822;2022-10-23T03:37:19;100065.66;;;20.43;55.63
62544;BME280;48597;49.030;1.822;2022-10-23T03:39:44;100058.66;;;20.42;55.58
62544;BME280;48597;49.030;1.822;2022-10-23T03:42:09;100044.28;;;20.43;55.53
62544;BME280;48597;49.030;1.822;2022-10-23T03:44:35;100046.31;;;20.41;55.70
62544;BME280;48597;49.030;1.822;2022-10-23T03:47:00;100041.63;;;20.43;55.67
62544;BME280;48597;49.030;1.822;2022-10-23T03:49:26;100048.81;;;20.42;55.58
62544;BME280;48597;49.030;1.822;2022-10-23T03:51:52;100040.78;;;20.42;55.61
62544;BME280;48597;49.030;1.822;2022-10-23T03:54:22;100043.47;;;20.42;55.78
62544;BME280;48597;49.030;1.822;2022-10-23T03:56:48;100037.28;;;20.42;55.59
62544;BME280;48597;49.030;1.822;2022-10-23T03:59:13;100042.63;;;20.42;55.52
62544;BME280;48597;49.030;1.822;2022-10-23T04:01:39;100053.31;;;20.42;55.58
62544;BME280;48597;49.030;1.822;2022-10-23T04:04:04;100051.66;;;20.41;55.60
62544;BME280;48597;49.030;1.822;2022-10-23T04:06:29;100056.00;;;20.42;55.82
62544;BME280;48597;49.030;1.822;2022-10-23T04:08:55;100056.00;;;20.42;55.62
62544;BME280;48597;49.030;1.822;2022-10-23T04:11:20;100058.66;;;20.42;55.67
62544;BME280;48597;49.030;1.822;2022-10-23T04:13:46;100065.03;;;20.41;55.44
62544;BME280;48597;49.030;1.822;2022-10-23T04:16:11;100073.03;;;20.41;55.80
62544;BME280;48597;49.030;1.822;2022-10-23T04:18:39;100072.03;;;20.42;55.63
62544;BME280;48597;49.030;1.822;2022-10-23T04:21:04;100070.19;;;20.42;55.56
62544;BME280;48597;49.030;1.822;2022-10-23T04:23:30;100068.53;;;20.41;55.72
62544;BME280;48597;49.030;1.822;2022-10-23T04:25:56;100069.34;;;20.42;55.58
62544;BME280;48597;49.030;1.822;2022-10-23T04:28:22;100067.69;;;20.41;55.52
62544;BME280;48597;49.030;1.822;2022-10-23T04:30:48;100062.34;;;20.41;55.53
62544;BME280;48597;49.030;1.822;2022-10-23T04:33:15;100063.19;;;20.41;55.46
62544;BME280;48597;49.030;1.822;2022-10-23T04:35:40;100053.31;;;20.42;55.55
62544;BME280;48597;49.030;1.822;2022-10-23T04:38:05;100059.69;;;20.41;55.48
62544;BME280;48597;49.030;1.822;2022-10-23T04:40:31;100065.03;;;20.41;55.50
62544;BME280;48597;49.030;1.822;2022-10-23T04:42:56;100062.34;;;20.41;55.49
62544;BME280;48597;49.030;1.822;2022-10-23T04:45:24;100060.69;;;20.40;55.40
62544;BME280;48597;49.030;1.822;2022-10-23T04:47:50;100042.81;;;20.40;55.45
62544;BME280;48597;49.030;1.822;2022-10-23T04:50:18;100049.16;;;20.39;55.48
62544;BME280;48597;49.030;1.822;2022-10-23T04:52:43;100047.16;;;20.41;55.40
62544;BME280;48597;49.030;1.822;2022-10-23T04:55:09;100048.16;;;20.40;55.33
62544;BME280;48597;49.030;1.822;2022-10-23T04:57:34;100040.16;;;20.40;55.44
62544;BME280;48597;49.030;1.822;2022-10-23T05:00:00;100037.63;;;20.39;55.46
62544;BME280;48597;49.030;1.822;2022-10-23T05:02:25;100059.00;;;20.39;55.61
62544;BME280;48597;49.030;1.822;2022-10-23T05:04:51;100091.91;;;20.39;55.54
62544;BME280;48597;49.030;1.822;2022-10-23T05:07:17;100086.56;;;20.39;55.32
62544;BME280;48597;49.030;1.822;2022-10-23T05:09:42;100077.72;;;20.39;55.39
62544;BME280;48597;49.030;1.822;2022-10-23T05:12:08;100066.03;;;20.40;55.39
62544;BME280;48597;49.030;1.822;2022-10-23T05:14:33;100047.34;;;20.40;55.41
62544;BME280;48597;49.030;1.822;2022-10-23T05:17:06;100039.31;;;20.40;55.42
62544;BME280;48597;49.030;1.822;2022-10-23T05:19:44;100045.66;;;20.39;55.44
62544;BME280;48597;49.030;1.822;2022-10-23T05:22:12;100036.66;;;20.40;55.57
62544;BME280;48597;49.030;1.822;2022-10-23T05:24:40;100031.44;;;20.38;55.57
62544;BME280;48597;49.030;1.822;2022-10-23T05:27:05;100021.59;;;20.39;55.57
62544;BME280;48597;49.030;1.822;2022-10-23T05:29:31;100010.91;;;20.39;55.61
62544;BME280;48597;49.030;1.822;2022-10-23T05:32:00;100017.94;;;20.40;55.26
62544;BME280;48597;49.030;1.822;2022-10-23T05:34:27;100002.88;;;20.39;55.47
62544;BME280;48597;49.030;1.822;2022-10-23T05:36:55;99990.34;;;20.39;55.60
62544;BME280;48597;49.030;1.822;2022-10-23T05:39:21;99972.66;;;20.38;55.62
62544;BME280;48597;49.030;1.822;2022-10-23T05:41:46;99956.63;;;20.38;55.73
62544;BME280;48597;49.030;1.822;2022-10-23T05:44:11;99949.44;;;20.39;55.64
62544;BME280;48597;49.030;1.822;2022-10-23T05:46:40;99955.81;;;20.38;55.64
62544;BME280;48597;49.030;1.822;2022-10-23T05:49:06;99963.00;;;20.37;55.42
62544;BME280;48597;49.030;1.822;2022-10-23T05:51:35;99953.13;;;20.38;55.52
62544;BME280;48597;49.030;1.822;2022-10-23T05:54:01;99956.81;;;20.37;55.55
62544;BME280;48597;49.030;1.822;2022-10-23T05:56:27;99954.16;;;20.37;55.68
62544;BME280;48597;49.030;1.822;2022-10-23T05:58:52;99953.13;;;20.38;55.59
62544;BME280;48597;49.030;1.822;2022-10-23T06:01:18;99948.81;;;20.37;55.66
62544;BME280;48597;49.030;1.822;2022-10-23T06:03:43;99944.28;;;20.37;55.35
62544;BME280;48597;49.030;1.822;2022-10-23T06:06:09;99950.47;;;20.38;55.56
62544;BME280;48597;49.030;1.822;2022-10-23T06:08:35;99951.28;;;20.38;55.58
62544;BME280;48597;49.030;1.822;2022-10-23T06:11:11;99929.09;;;20.38;55.52
62544;BME280;48597;49.030;1.822;2022-10-23T06:13:37;99929.09;;;20.38;55.49
62544;BME280;48597;49.030;1.822;2022-10-23T06:16:15;99939.78;;;20.38;55.55
62544;BME280;48597;49.030;1.822;2022-10-23T06:18:41;99925.41;;;20.39;55.56
62544;BME280;48597;49.030;1.822;2022-10-23T06:21:07;99924.75;;;20.37;55.82
62544;BME280;48597;49.030;1.822;2022-10-23T06:23:34;99924.56;;;20.38;55.63
62544;BME280;48597;49.030;1.822;2022-10-23T06:26:00;99915.72;;;20.38;55.75
62544;BME280;48597;49.030;1.822;2022-10-23T06:28:26;99906.69;;;20.39;55.49
62544;BME280;48597;49.030;1.822;2022-10-23T06:30:52;99908.53;;;20.38;55.65
62544;BME280;48597;49.030;1.822;2022-10-23T06:33:18;99901.34;;;20.39;55.57
62544;BME280;48597;49.030;1.822;2022-10-23T06:35:44;99903.19;;;20.38;55.72
62544;BME280;48597;49.030;1.822;2022-10-23T06:38:09;99901.34;;;20.39;55.61
62544;BME280;48597;49.030;1.822;2022-10-23T06:40:36;99902.38;;;20.38;55.64
62544;BME280;48597;49.030;1.822;2022-10-23T06:43:03;99909.38;;;20.39;55.71
62544;BME280;48597;49.030;1.822;2022-10-23T06:45:29;99918.41;;;20.38;55.70
62544;BME280;48597;49.030;1.822;2022-10-23T06:47:56;99914.91;;;20.37;55.55
62544;BME280;48597;49.030;1.822;2022-10-23T06:50:22;99914.72;;;20.39;55.64
62544;BME280;48597;49.030;1.822;2022-10-23T06:52:49;99908.53;;;20.38;55.65
62544;BME280;48597;49.030;1.822;2022-10-23T06:55:14;99909.56;;;20.37;55.58
62544;BME280;48597;49.030;1.822;2022-10-23T06:57:40;99907.72;;;20.38;55.57
62544;BME280;48597;49.030;1.822;2022-10-23T07:00:06;99898.69;;;20.39;55.59
62544;BME280;48597;49.030;1.822;2022-10-23T07:02:31;99902.38;;;20.38;55.64
62544;BME280;48597;49.030;1.822;2022-10-23T07:04:57;99901.34;;;20.39;55.50
62544;BME280;48597;49.030;1.822;2022-10-23T07:07:22;99903.19;;;20.38;55.35
62544;BME280;48597;49.030;1.822;2022-10-23T07:09:47;99900.38;;;20.40;55.68
62544;BME280;48597;49.030;1.822;2022-10-23T07:12:13;99886.34;;;20.38;55.67
62544;BME280;48597;49.030;1.822;2022-10-23T07:14:38;99889.84;;;20.38;55.42
62544;BME280;48597;49.030;1.822;2022-10-23T07:17:03;99889.69;;;20.40;55.64
62544;BME280;48597;49.030;1.822;2022-10-23T07:19:29;99898.69;;;20.39;55.49
62544;BME280;48597;49.030;1.822;2022-10-23T07:21:54;99892.34;;;20.40;55.39
62544;BME280;48597;49.030;1.822;2022-10-23T07:24:20;99887.84;;;20.40;55.41
62544;BME280;48597;49.030;1.822;2022-10-23T07:26:45;99880.63;;;20.41;55.52
62544;BME280;48597;49.030;1.822;2022-10-23T07:29:11;99891.34;;;20.41;55.57
62544;BME280;48597;49.030;1.822;2022-10-23T07:31:37;99887.84;;;20.40;55.53
62544;BME280;48597;49.030;1.822;2022-10-23T07:34:02;99897.50;;;20.41;55.42
62544;BME280;48597;49.030;1.822;2022-10-23T07:36:27;99886.00;;;20.41;55.34
62544;BME280;48597;49.030;1.822;2022-10-23T07:38:53;99885.16;;;20.40;55.29
62544;BME280;48597;49.030;1.822;2022-10-23T07:41:18;99876.94;;;20.42;55.37
62544;BME280;48597;49.030;1.822;2022-10-23T07:43:44;99884.97;;;20.42;55.33
62544;BME280;48597;49.030;1.822;2022-10-23T07:46:09;99872.44;;;20.42;55.45
62544;BME280;48597;49.030;1.822;2022-10-23T07:48:36;99862.56;;;20.43;55.17
62544;BME280;48597;49.030;1.822;2022-10-23T07:51:14;99858.06;;;20.43;55.39
62544;BME280;48597;49.030;1.822;2022-10-23T07:53:41;99855.56;;;20.42;55.22
62544;BME280;48597;49.030;1.822;2022-10-23T07:56:15;99843.03;;;20.42;55.38
62544;BME280;48597;49.030;1.822;2022-10-23T07:58:41;99858.06;;;20.43;55.44
62544;BME280;48597;49.030;1.822;2022-10-23T08:01:28;99855.56;;;20.42;55.81
62544;BME280;48597;49.030;1.822;2022-10-23T08:03:54;99853.25;;;20.39;56.85
62544;BME280;48597;49.030;1.822;2022-10-23T08:06:19;99866.25;;;20.42;56.85
62544;BME280;48597;49.030;1.822;2022-10-23T08:08:46;99861.75;;;20.42;56.79
62544;BME280;48597;49.030;1.822;2022-10-23T08:11:13;99856.41;;;20.42;56.48
62544;BME280;48597;49.030;1.822;2022-10-23T08:13:39;99853.56;;;20.44;56.77
62544;BME280;48597;49.030;1.822;2022-10-23T08:16:05;99841.88;;;20.45;57.07
62544;BME280;48597;49.030;1.822;2022-10-23T08:18:30;99843.53;;;20.46;56.89
62544;BME280;48597;49.030;1.822;2022-10-23T08:21:01;99839.00;;;20.46;56.86
62544;BME280;48597;49.030;1.822;2022-10-23T08:23:27;99845.03;;;20.48;57.24
62544;BME280;48597;49.030;1.822;2022-10-23T08:25:58;99839.00;;;20.46;56.82
62544;BME280;48597;49.030;1.822;2022-10-23T08:28:24;99839.66;;;20.48;57.00
62544;BME280;48597;49.030;1.822;2022-10-23T08:30:51;99847.69;;;20.48;57.03
62544;BME280;48597;49.030;1.822;2022-10-23T08:33:16;99841.34;;;20.49;57.08
62544;BME280;48597;49.030;1.822;2022-10-23T08:35:42;99840.19;;;20.52;57.26
62544;BME280;48597;49.030;1.822;2022-10-23T08:38:07;99831.16;;;20.53;57.08
62544;BME280;48597;49.030;1.822;2022-10-23T08:40:33;99833.81;;;20.53;57.13
62544;BME280;48597;49.030;1.822;2022-10-23T08:45:44;99836.31;;;20.54;56.84
62544;BME280;48597;49.030;1.822;2022-10-23T08:48:24;99838.81;;;20.56;57.04
62544;BME280;48597;49.030;1.822;2022-10-23T08:53:51;99842.66;;;20.53;57.06
62544;BME280;48597;49.030;1.822;2022-10-23T08:56:33;99845.16;;;20.55;57.06
62544;BME280;48597;49.030;1.822;2022-10-23T08:59:05;99841.84;;;20.53;57.25
62544;BME280;48597;49.030;1.822;2022-10-23T09:01:57;99841.00;;;20.52;57.45
62544;BME280;48597;49.030;1.822;2022-10-23T09:04:24;99841.00;;;20.52;57.60
62544;BME280;48597;49.030;1.822;2022-10-23T09:12:23;99843.34;;;20.55;57.29
62544;BME280;48597;49.030;1.822;2022-10-23T09:15:09;99836.31;;;20.54;57.35
62544;BME280;48597;49.030;1.822;2022-10-23T09:17:39;99845.81;;;20.57;57.43
62544;BME280;48597;49.030;1.822;2022-10-23T09:20:21;99843.16;;;20.57;57.74
62544;BME280;48597;49.030;1.822;2022-10-23T09:22:49;99835.13;;;20.57;57.49
62544;BME280;48597;49.030;1.822;2022-10-23T09:25:44;99835.13;;;20.57;57.75
62544;BME280;48597;49.030;1.822;2022-10-23T09:28:40;99836.63;;;20.59;57.48
62544;BME280;48597;49.030;1.822;2022-10-23T09:31:08;99844.63;;;20.59;57.66
62544;BME280;48597;49.030;1.822;2022-10-23T09:33:34;99840.13;;;20.60;57.76
62544;BME280;48597;49.030;1.822;2022-10-23T09:40:54;99816.69;;;20.62;57.67
62544;BME280;48597;49.030;1.822;2022-10-23T09:43:20;99813.38;;;20.60;57.80
62544;BME280;48597;49.030;1.822;2022-10-23T09:45:59;99824.72;;;20.62;57.76
62544;BME280;48597;49.030;1.822;2022-10-23T09:48:27;99814.03;;;20.62;57.88
62544;BME280;48597;49.030;1.822;2022-10-23T09:55:51;99810.53;;;20.62;58.37
62544;BME280;48597;49.030;1.822;2022-10-23T09:58:30;99817.72;;;20.61;58.25
62544;BME280;48597;49.030;1.822;2022-10-23T10:00:56;99800.50;;;20.64;58.43
62544;BME280;48597;49.030;1.822;2022-10-23T10:03:23;99796.81;;;20.65;58.41
62544;BME280;48597;49.030;1.822;2022-10-23T10:06:02;99793.94;;;20.66;58.15
62544;BME280;48597;49.030;1.822;2022-10-23T10:08:51;99811.66;;;20.67;58.25
62544;BME280;48597;49.030;1.822;2022-10-23T10:14:02;99799.13;;;20.68;58.42
62544;BME280;48597;49.030;1.822;2022-10-23T10:24:44;99788.25;;;20.69;58.12
62544;BME280;48597;49.030;1.822;2022-10-23T10:27:40;99794.41;;;20.70;58.19
62544;BME280;48597;49.030;1.822;2022-10-23T10:30:21;99788.91;;;20.71;58.00
62544;BME280;48597;49.030;1.822;2022-10-23T10:36:02;99785.38;;;20.71;57.84
62544;BME280;48597;49.030;1.822;2022-10-23T10:38:40;99779.03;;;20.72;57.84
62544;BME280;48597;49.030;1.822;2022-10-23T10:44:14;99776.38;;;20.72;58.13
62544;BME280;48597;49.030;1.822;2022-10-23T10:47:20;99771.84;;;20.72;58.14
62544;BME280;48597;49.030;1.822;2022-10-23T10:49:59;99775.34;;;20.73;57.87
62544;BME280;48597;49.030;1.822;2022-10-23T10:55:30;99773.50;;;20.73;57.85
62544;BME280;48597;49.030;1.822;2022-10-23T10:58:02;99778.03;;;20.73;58.08
62544;BME280;48597;49.030;1.822;2022-10-23T11:00:30;99772.47;;;20.74;57.99
62544;BME280;48597;49.030;1.822;2022-10-23T11:03:08;99782.19;;;20.75;57.89
62544;BME280;48597;49.030;1.822;2022-10-23T11:05:37;99781.16;;;20.76;57.83
62544;BME280;48597;49.030;1.822;2022-10-23T11:08:09;99773.97;;;20.77;58.10
62544;BME280;48597;49.030;1.822;2022-10-23T11:10:40;99773.16;;;20.76;58.05
62544;BME280;48597;49.030;1.822;2022-10-23T11:13:24;99772.94;;;20.78;57.93
62544;BME280;48597;49.030;1.822;2022-10-23T11:15:51;99763.28;;;20.77;58.06
62544;BME280;48597;49.030;1.822;2022-10-23T11:18:24;99765.75;;;20.78;57.61
62544;BME280;48597;49.030;1.822;2022-10-23T11:21:13;99754.91;;;20.80;57.85
62544;BME280;48597;49.030;1.822;2022-10-23T11:37:27;99722.44;;;20.83;57.68
62544;BME280;48597;49.030;1.822;2022-10-23T11:40:17;99730.28;;;20.84;57.41
62544;BME280;48597;49.030;1.822;2022-10-23T11:42:47;99718.56;;;20.86;57.21
62544;BME280;48597;49.030;1.822;2022-10-23T11:45:31;99709.53;;;20.87;57.49
62544;BME280;48597;49.030;1.822;2022-10-23T11:47:59;99694.34;;;20.87;57.47
62544;BME280;48597;49.030;1.822;2022-10-23T11:50:28;99695.16;;;20.88;57.23
62544;BME280;48597;49.030;1.822;2022-10-23T11:53:02;99691.47;;;20.89;57.45
62544;BME280;48597;49.030;1.822;2022-10-23T11:55:30;99694.97;;;20.89;57.40
62544;BME280;48597;49.030;1.822;2022-10-23T11:58:21;99693.94;;;20.90;57.44
62544;BME280;48597;49.030;1.822;2022-10-23T12:00:54;99699.94;;;20.92;57.23
62544;BME280;48597;49.030;1.822;2022-10-23T12:03:28;99700.78;;;20.93;57.49
62544;BME280;48597;49.030;1.822;2022-10-23T12:06:04;99690.06;;;20.93;57.15
62544;BME280;48597;49.030;1.822;2022-10-23T12:08:33;99680.03;;;20.95;57.28
62544;BME280;48597;49.030;1.822;2022-10-23T12:11:00;99675.50;;;20.95;57.27
62544;BME280;48597;49.030;1.822;2022-10-23T12:16:04;99673.66;;;20.96;57.61
62544;BME280;48597;49.030;1.822;2022-10-23T12:18:31;99666.28;;;20.98;57.51
62544;BME280;48597;49.030;1.822;2022-10-23T12:29:04;99636.50;;;21.01;57.51
62544;BME280;48597;49.030;1.822;2022-10-23T12:40:08;99630.94;;;21.02;57.10
62544;BME280;48597;49.030;1.822;2022-10-23T12:42:36;99641.47;;;21.04;57.25
62544;BME280;48597;49.030;1.822;2022-10-23T12:45:15;99646.00;;;21.03;57.11
62544;BME280;48597;49.030;1.822;2022-10-23T12:47:42;99629.13;;;21.03;57.21
62544;BME280;48597;49.030;1.822;2022-10-23T12:50:36;99621.94;;;21.03;57.24
62544;BME280;48597;49.030;1.822;2022-10-23T12:53:04;99611.22;;;21.03;57.00
62544;BME280;48597;49.030;1.822;2022-10-23T12:55:57;99594.16;;;21.04;56.91
62544;BME280;48597;49.030;1.822;2022-10-23T12:58:31;99603.19;;;21.03;57.15
62544;BME280;48597;49.030;1.822;2022-10-23T13:00:59;99599.31;;;21.06;56.90
62544;BME280;48597;49.030;1.822;2022-10-23T13:03:26;99593.13;;;21.05;57.02
62544;BME280;48597;49.030;1.822;2022-10-23T13:05:54;99578.94;;;21.05;57.15
62544;BME280;48597;49.030;1.822;2022-10-23T13:08:27;99568.88;;;21.07;56.85
62544;BME280;48597;49.030;1.822;2022-10-23T13:10:53;99560.88;;;21.07;57.03
62544;BME280;48597;49.030;1.822;2022-10-23T13:13:21;99553.47;;;21.09;56.94
62544;BME280;48597;49.030;1.822;2022-10-23T13:15:49;99545.44;;;21.09;56.99
62544;BME280;48597;49.030;1.822;2022-10-23T13:18:16;99541.72;;;21.10;57.22
62544;BME280;48597;49.030;1.822;2022-10-23T13:21:01;99527.16;;;21.13;57.03
62544;BME280;48597;49.030;1.822;2022-10-23T13:23:32;99526.34;;;21.12;57.11
62544;BME280;48597;49.030;1.822;2022-10-23T13:26:18;99506.59;;;21.13;57.16
62544;BME280;48597;49.030;1.822;2022-10-23T13:28:45;99502.88;;;21.14;57.00
62544;BME280;48597;49.030;1.822;2022-10-23T13:33:39;99486.84;;;21.14;57.18
62544;BME280;48597;49.030;1.822;2022-10-23T13:38:36;99483.16;;;21.15;57.00
62544;BME280;48597;49.030;1.822;2022-10-23T13:41:03;99491.19;;;21.15;57.24
62544;BME280;48597;49.030;1.822;2022-10-23T13:43:30;99492.84;;;21.16;57.17
62544;BME280;48597;49.030;1.822;2022-10-23T13:45:59;99493.03;;;21.15;56.93
62544;BME280;48597;49.030;1.822;2022-10-23T13:48:25;99485.84;;;21.15;57.19
62544;BME280;48597;49.030;1.822;2022-10-23T13:50:51;99474.13;;;21.16;57.03
62544;BME280;48597;49.030;1.822;2022-10-23T13:53:16;99468.97;;;21.15;57.09
62544;BME280;48597;49.030;1.822;2022-10-23T13:55:44;99464.44;;;21.15;56.83
62544;BME280;48597;49.030;1.822;2022-10-23T13:58:10;99468.97;;;21.15;56.83
62544;BME280;48597;49.030;1.822;2022-10-23T14:00:36;99464.44;;;21.15;57.05
62544;BME280;48597;49.030;1.822;2022-10-23T14:03:03;99469.59;;;21.17;57.12
62544;BME280;48597;49.030;1.822;2022-10-23T14:05:29;99483.34;;;21.14;57.19
62544;BME280;48597;49.030;1.822;2022-10-23T14:07:54;99469.78;;;21.15;57.21
62544;BME280;48597;49.030;1.822;2022-10-23T14:10:20;99455.59;;;21.15;57.48
62544;BME280;48597;49.030;1.822;2022-10-23T14:12:46;99469.78;;;21.15;57.71
62544;BME280;48597;49.030;1.822;2022-10-23T14:15:11;99472.25;;;21.17;57.52
62544;BME280;48597;49.030;1.822;2022-10-23T14:17:37;99477.44;;;21.18;57.60
62544;BME280;48597;49.030;1.822;2022-10-23T14:20:03;99463.41;;;21.16;57.64
62544;BME280;48597;49.030;1.822;2022-10-23T14:22:28;99453.53;;;21.17;57.81
62544;BME280;48597;49.030;1.822;2022-10-23T14:24:54;99457.69;;;21.19;57.56
62544;BME280;48597;49.030;1.822;2022-10-23T14:27:19;99452.50;;;21.18;58.04
62544;BME280;48597;49.030;1.822;2022-10-23T14:29:44;99458.72;;;21.18;57.89
62544;BME280;48597;49.030;1.822;2022-10-23T14:32:10;99440.97;;;21.17;58.01
62544;BME280;48597;49.030;1.822;2022-10-23T14:34:39;99423.94;;;21.18;57.36
62544;BME280;48597;49.030;1.822;2022-10-23T14:37:05;99416.91;;;21.17;57.32
62544;BME280;48597;49.030;1.822;2022-10-23T14:39:30;99434.63;;;21.18;57.15
62544;BME280;48597;49.030;1.822;2022-10-23T14:41:56;99410.72;;;21.17;57.21
62544;BME280;48597;49.030;1.822;2022-10-23T14:44:21;99398.38;;;21.16;57.20